sensor_id;sensor_type;location;lat;lon;timestamp;noise_LAeq;noise_LA_min;noise_LA_max;noise_LA01;noise_LA95
43938;Laerm;71382;47.750;10.226;2023-08-01T00:00:14;35.08;30.82;54.04;;
43938;Laerm;71382;47.750;10.226;2023-08-01T00:02:40;43.90;30.69;68.86;;
43938;Laerm;71382;47.750;10.226;2023-08-01T00:05:08;43.96;30.85;66.59;;
43938;Laerm;71382;47.750;10.226;2023-08-01T00:07:33;39.12;30.79;60.82;;
43938;Laerm;71382;47.750;10.226;2023-08-01T00:09:59;32.38;30.23;46.59;;
43938;Laerm;71382;47.750;10.226;2023-08-01T00:12:24;42.82;30.62;63.08;;
43938;Laerm;71382;47.750;10.226;2023-08-01T00:14:50;36.73;30.29;55.94;;
43938;Laerm;71382;47.750;10.226;2023-08-01T00:17:16;41.49;30.86;64.16;;
43938;Laerm;71382;47.750;10.226;2023-08-01T00:19:41;35.40;30.42;52.63;;
43938;Laerm;71382;47.750;10.226;2023-08-01T00:22:07;42.99;30.76;63.07;;
43938;Laerm;71382;47.750;10.226;2023-08-01T00:24:33;38.29;31.03;52.65;;
43938;Laerm;71382;47.750;10.226;2023-08-01T00:26:58;41.06;31.08;60.54;;
43938;Laerm;71382;47.750;10.226;2023-08-01T00:29:24;34.96;30.19;55.09;;
43938;Laerm;71382;47.750;10.226;2023-08-01T00:31:49;31.82;29.90;41.06;;
43938;Laerm;71382;47.750;10.226;2023-08-01T00:34:15;44.80;30.06;68.13;;
43938;Laerm;71382;47.750;10.226;2023-08-01T00:36:40;47.13;30.03;68.78;;
43938;Laerm;71382;47.750;10.226;2023-08-01T00:39:06;32.03;29.94;49.85;;
43938;Laerm;71382;47.750;10.226;2023-08-01T00:41:31;37.08;30.32;55.33;;
43938;Laerm;71382;47.750;10.226;2023-08-01T00:43:57;36.45;30.41;55.74;;
43938;Laerm;71382;47.750;10.226;2023-08-01T00:46:23;39.44;30.73;58.05;;
43938;Laerm;71382;47.750;10.226;2023-08-01T00:48:49;39.88;31.35;56.58;;
43938;Laerm;71382;47.750;10.226;2023-08-01T00:51:14;35.29;30.46;54.91;;
43938;Laerm;71382;47.750;10.226;2023-08-01T00:53:40;38.45;30.73;58.96;;
43938;Laerm;71382;47.750;10.226;2023-08-01T00:56:06;38.69;30.78;55.20;;
43938;Laerm;71382;47.750;10.226;2023-08-01T00:58:31;45.07;30.83;63.52;;
43938;Laerm;71382;47.750;10.226;2023-08-01T01:00:57;48.54;30.67;72.20;;
43938;Laerm;71382;47.750;10.226;2023-08-01T01:03:24;34.63;30.25;53.90;;
43938;Laerm;71382;47.750;10.226;2023-08-01T01:05:56;36.76;29.88;64.06;;
43938;Laerm;71382;47.750;10.226;2023-08-01T01:08:23;32.26;29.74;48.25;;
43938;Laerm;71382;47.750;10.226;2023-08-01T01:10:48;30.57;29.39;40.18;;
43938;Laerm;71382;47.750;10.226;2023-08-01T01:13:14;34.13;29.90;52.46;;
43938;Laerm;71382;47.750;10.226;2023-08-01T01:15:39;42.51;29.85;62.21;;
43938;Laerm;71382;47.750;10.226;2023-08-01T01:18:05;38.17;29.72;54.75;;
43938;Laerm;71382;47.750;10.226;2023-08-01T01:20:33;31.19;29.81;42.90;;
43938;Laerm;71382;47.750;10.226;2023-08-01T01:22:59;45.07;29.91;66.85;;
43938;Laerm;71382;47.750;10.226;2023-08-01T01:25:25;33.30;29.58;52.50;;
43938;Laerm;71382;47.750;10.226;2023-08-01T01:27:51;38.37;29.92;57.83;;
43938;Laerm;71382;47.750;10.226;2023-08-01T01:30:18;32.52;29.67;49.12;;
43938;Laerm;71382;47.750;10.226;2023-08-01T01:32:44;37.03;29.87;56.71;;
43938;Laerm;71382;47.750;10.226;2023-08-01T01:35:10;37.42;29.88;58.73;;
43938;Laerm;71382;47.750;10.226;2023-08-01T01:37:36;43.35;29.64;62.66;;
43938;Laerm;71382;47.750;10.226;2023-08-01T01:40:01;41.53;29.84;57.21;;
43938;Laerm;71382;47.750;10.226;2023-08-01T01:42:27;34.12;29.97;52.92;;
43938;Laerm;71382;47.750;10.226;2023-08-01T01:44:53;37.86;30.22;58.03;;
43938;Laerm;71382;47.750;10.226;2023-08-01T01:47:18;32.60;29.43;42.37;;
43938;Laerm;71382;47.750;10.226;2023-08-01T01:49:44;37.33;29.80;55.90;;
43938;Laerm;71382;47.750;10.226;2023-08-01T01:52:10;36.28;29.89;59.54;;
43938;Laerm;71382;47.750;10.226;2023-08-01T01:54:35;34.15;29.63;56.46;;
43938;Laerm;71382;47.750;10.226;2023-08-01T01:57:01;36.26;29.74;57.79;;
43938;Laerm;71382;47.750;10.226;2023-08-01T01:59:26;31.36;29.56;45.89;;
43938;Laerm;71382;47.750;10.226;2023-08-01T02:01:55;35.36;29.53;47.53;;
43938;Laerm;71382;47.750;10.226;2023-08-01T02:04:21;34.98;30.02;51.76;;
43938;Laerm;71382;47.750;10.226;2023-08-01T02:06:47;31.37;29.76;43.16;;
43938;Laerm;71382;47.750;10.226;2023-08-01T02:09:13;31.25;29.46;46.22;;
43938;Laerm;71382;47.750;10.226;2023-08-01T02:11:38;35.60;29.40;56.46;;
43938;Laerm;71382;47.750;10.226;2023-08-01T02:14:04;32.35;29.56;47.80;;
43938;Laerm;71382;47.750;10.226;2023-08-01T02:16:29;32.24;29.49;46.05;;
43938;Laerm;71382;47.750;10.226;2023-08-01T02:18:55;39.21;29.37;62.06;;
43938;Laerm;71382;47.750;10.226;2023-08-01T02:21:21;34.15;29.71;53.11;;
43938;Laerm;71382;47.750;10.226;2023-08-01T02:23:46;35.57;29.98;55.85;;
43938;Laerm;71382;47.750;10.226;2023-08-01T02:26:12;31.73;29.78;47.32;;
43938;Laerm;71382;47.750;10.226;2023-08-01T02:28:37;31.14;29.42;44.72;;
43938;Laerm;71382;47.750;10.226;2023-08-01T02:31:03;31.98;29.48;48.35;;
43938;Laerm;71382;47.750;10.226;2023-08-01T02:33:28;36.72;29.54;54.85;;
43938;Laerm;71382;47.750;10.226;2023-08-01T02:35:54;31.49;29.52;47.72;;
43938;Laerm;71382;47.750;10.226;2023-08-01T02:38:19;33.26;29.53;44.18;;
43938;Laerm;71382;47.750;10.226;2023-08-01T02:40:45;35.52;29.85;48.73;;
43938;Laerm;71382;47.750;10.226;2023-08-01T02:43:12;34.97;29.49;49.24;;
43938;Laerm;71382;47.750;10.226;2023-08-01T02:45:37;33.68;29.21;47.83;;
43938;Laerm;71382;47.750;10.226;2023-08-01T02:48:03;34.37;29.48;50.30;;
43938;Laerm;71382;47.750;10.226;2023-08-01T02:50:28;33.31;29.62;43.40;;
43938;Laerm;71382;47.750;10.226;2023-08-01T02:52:54;31.98;29.44;51.30;;
43938;Laerm;71382;47.750;10.226;2023-08-01T02:55:19;31.77;29.80;51.88;;
43938;Laerm;71382;47.750;10.226;2023-08-01T02:57:45;31.91;29.40;54.87;;
43938;Laerm;71382;47.750;10.226;2023-08-01T03:00:11;34.58;29.63;46.31;;
43938;Laerm;71382;47.750;10.226;2023-08-01T03:02:39;34.31;29.87;53.85;;
43938;Laerm;71382;47.750;10.226;2023-08-01T03:05:08;35.18;29.69;51.79;;
43938;Laerm;71382;47.750;10.226;2023-08-01T03:07:34;32.24;29.65;46.76;;
43938;Laerm;71382;47.750;10.226;2023-08-01T03:10:00;37.28;29.83;58.91;;
43938;Laerm;71382;47.750;10.226;2023-08-01T03:12:25;36.76;29.97;48.78;;
43938;Laerm;71382;47.750;10.226;2023-08-01T03:14:51;35.31;29.88;50.27;;
43938;Laerm;71382;47.750;10.226;2023-08-01T03:17:17;48.85;30.52;71.05;;
43938;Laerm;71382;47.750;10.226;2023-08-01T03:19:42;33.93;30.25;50.70;;
43938;Laerm;71382;47.750;10.226;2023-08-01T03:22:09;36.55;30.13;51.17;;
43938;Laerm;71382;47.750;10.226;2023-08-01T03:24:34;42.74;30.19;60.65;;
43938;Laerm;71382;47.750;10.226;2023-08-01T03:27:00;40.00;30.20;51.99;;
43938;Laerm;71382;47.750;10.226;2023-08-01T03:29:26;40.34;30.20;55.33;;
43938;Laerm;71382;47.750;10.226;2023-08-01T03:31:52;33.36;30.04;43.96;;
43938;Laerm;71382;47.750;10.226;2023-08-01T03:34:19;33.73;30.13;44.45;;
43938;Laerm;71382;47.750;10.226;2023-08-01T03:36:44;38.72;30.29;51.08;;
43938;Laerm;71382;47.750;10.226;2023-08-01T03:39:10;35.14;30.86;44.09;;
43938;Laerm;71382;47.750;10.226;2023-08-01T03:41:36;33.46;30.45;51.07;;
43938;Laerm;71382;47.750;10.226;2023-08-01T03:44:02;39.08;30.61;50.18;;
43938;Laerm;71382;47.750;10.226;2023-08-01T03:46:28;36.51;30.95;45.67;;
43938;Laerm;71382;47.750;10.226;2023-08-01T03:48:54;38.57;30.66;50.84;;
43938;Laerm;71382;47.750;10.226;2023-08-01T03:51:19;32.86;30.10;42.66;;
43938;Laerm;71382;47.750;10.226;2023-08-01T03:53:46;34.93;30.17;45.97;;
43938;Laerm;71382;47.750;10.226;2023-08-01T03:56:11;41.32;30.35;53.47;;
43938;Laerm;71382;47.750;10.226;2023-08-01T03:58:37;35.99;30.69;46.15;;
43938;Laerm;71382;47.750;10.226;2023-08-01T04:01:03;36.14;30.47;49.16;;
43938;Laerm;71382;47.750;10.226;2023-08-01T04:03:28;33.81;30.83;50.86;;
43938;Laerm;71382;47.750;10.226;2023-08-01T04:05:54;36.62;31.04;46.59;;
43938;Laerm;71382;47.750;10.226;2023-08-01T04:08:19;36.46;31.10;44.32;;
43938;Laerm;71382;47.750;10.226;2023-08-01T04:10:45;40.30;30.98;59.52;;
43938;Laerm;71382;47.750;10.226;2023-08-01T04:13:11;32.79;30.86;45.14;;
43938;Laerm;71382;47.750;10.226;2023-08-01T04:15:36;39.73;30.97;51.33;;
43938;Laerm;71382;47.750;10.226;2023-08-01T04:18:02;36.28;31.12;49.07;;
43938;Laerm;71382;47.750;10.226;2023-08-01T04:20:28;37.03;33.02;46.77;;
43938;Laerm;71382;47.750;10.226;2023-08-01T04:22:53;44.74;31.86;57.75;;
43938;Laerm;71382;47.750;10.226;2023-08-01T04:25:19;41.76;30.78;54.18;;
43938;Laerm;71382;47.750;10.226;2023-08-01T04:27:45;38.29;30.89;51.25;;
43938;Laerm;71382;47.750;10.226;2023-08-01T04:30:11;41.60;31.51;52.40;;
43938;Laerm;71382;47.750;10.226;2023-08-01T04:32:36;39.60;31.09;49.46;;
43938;Laerm;71382;47.750;10.226;2023-08-01T04:35:02;41.88;31.14;54.79;;
43938;Laerm;71382;47.750;10.226;2023-08-01T04:37:29;37.98;31.51;48.36;;
43938;Laerm;71382;47.750;10.226;2023-08-01T04:39:55;41.16;31.63;53.76;;
43938;Laerm;71382;47.750;10.226;2023-08-01T04:42:20;38.38;31.33;56.95;;
43938;Laerm;71382;47.750;10.226;2023-08-01T04:44:46;42.76;32.18;53.69;;
43938;Laerm;71382;47.750;10.226;2023-08-01T04:47:13;39.10;32.01;52.00;;
43938;Laerm;71382;47.750;10.226;2023-08-01T04:49:38;39.71;31.79;50.55;;
43938;Laerm;71382;47.750;10.226;2023-08-01T04:52:04;43.29;31.04;56.41;;
43938;Laerm;71382;47.750;10.226;2023-08-01T04:54:30;42.95;31.32;51.23;;
43938;Laerm;71382;47.750;10.226;2023-08-01T04:56:55;39.41;31.69;57.30;;
43938;Laerm;71382;47.750;10.226;2023-08-01T04:59:21;39.03;30.75;50.95;;
43938;Laerm;71382;47.750;10.226;2023-08-01T05:01:46;46.91;32.38;58.16;;
43938;Laerm;71382;47.750;10.226;2023-08-01T05:04:12;46.02;31.85;61.19;;
43938;Laerm;71382;47.750;10.226;2023-08-01T05:06:38;39.29;31.90;51.91;;
43938;Laerm;71382;47.750;10.226;2023-08-01T05:09:03;42.02;31.65;56.26;;
43938;Laerm;71382;47.750;10.226;2023-08-01T05:11:29;44.58;32.66;57.44;;
43938;Laerm;71382;47.750;10.226;2023-08-01T05:13:55;40.28;32.43;58.66;;
43938;Laerm;71382;47.750;10.226;2023-08-01T05:16:21;42.79;32.24;56.53;;
43938;Laerm;71382;47.750;10.226;2023-08-01T05:18:46;45.36;33.19;59.08;;
43938;Laerm;71382;47.750;10.226;2023-08-01T05:21:12;43.21;34.23;56.64;;
43938;Laerm;71382;47.750;10.226;2023-08-01T05:23:37;45.30;34.80;61.00;;
43938;Laerm;71382;47.750;10.226;2023-08-01T05:26:03;52.29;34.23;74.92;;
43938;Laerm;71382;47.750;10.226;2023-08-01T05:28:29;41.29;33.63;51.70;;
43938;Laerm;71382;47.750;10.226;2023-08-01T05:30:54;45.97;32.86;67.69;;
43938;Laerm;71382;47.750;10.226;2023-08-01T05:33:20;40.42;31.82;51.58;;
43938;Laerm;71382;47.750;10.226;2023-08-01T05:35:45;42.25;32.47;54.47;;
43938;Laerm;71382;47.750;10.226;2023-08-01T05:38:11;47.11;32.90;65.90;;
43938;Laerm;71382;47.750;10.226;2023-08-01T05:40:37;41.13;32.64;54.96;;
43938;Laerm;71382;47.750;10.226;2023-08-01T05:43:02;44.55;32.45;55.28;;
43938;Laerm;71382;47.750;10.226;2023-08-01T05:45:29;46.53;32.24;68.51;;
43938;Laerm;71382;47.750;10.226;2023-08-01T05:47:55;39.50;31.94;55.06;;
43938;Laerm;71382;47.750;10.226;2023-08-01T05:50:21;43.44;32.83;59.11;;
43938;Laerm;71382;47.750;10.226;2023-08-01T05:52:46;37.98;32.54;51.31;;
43938;Laerm;71382;47.750;10.226;2023-08-01T05:55:12;41.74;32.76;52.29;;
43938;Laerm;71382;47.750;10.226;2023-08-01T05:57:37;47.01;32.77;58.53;;
43938;Laerm;71382;47.750;10.226;2023-08-01T06:00:03;42.22;33.12;61.56;;
43938;Laerm;71382;47.750;10.226;2023-08-01T06:02:38;47.33;33.42;60.51;;
43938;Laerm;71382;47.750;10.226;2023-08-01T06:05:03;45.07;32.49;58.54;;
43938;Laerm;71382;47.750;10.226;2023-08-01T06:07:29;44.24;32.18;57.99;;
43938;Laerm;71382;47.750;10.226;2023-08-01T06:09:55;42.19;32.36;59.18;;
43938;Laerm;71382;47.750;10.226;2023-08-01T06:12:20;41.65;32.74;57.16;;
43938;Laerm;71382;47.750;10.226;2023-08-01T06:14:46;42.48;32.37;58.01;;
43938;Laerm;71382;47.750;10.226;2023-08-01T06:17:13;48.50;33.39;69.83;;
43938;Laerm;71382;47.750;10.226;2023-08-01T06:19:39;42.59;33.23;52.94;;
43938;Laerm;71382;47.750;10.226;2023-08-01T06:22:04;41.48;33.31;52.53;;
43938;Laerm;71382;47.750;10.226;2023-08-01T06:24:30;47.25;32.97;57.54;;
43938;Laerm;71382;47.750;10.226;2023-08-01T06:26:56;40.83;33.23;55.96;;
43938;Laerm;71382;47.750;10.226;2023-08-01T06:29:21;39.87;32.49;53.84;;
43938;Laerm;71382;47.750;10.226;2023-08-01T06:31:47;48.75;33.26;60.53;;
43938;Laerm;71382;47.750;10.226;2023-08-01T06:34:12;41.20;31.96;53.24;;
43938;Laerm;71382;47.750;10.226;2023-08-01T06:36:38;43.19;31.82;56.77;;
43938;Laerm;71382;47.750;10.226;2023-08-01T06:39:03;41.32;31.40;54.66;;
43938;Laerm;71382;47.750;10.226;2023-08-01T06:41:29;41.46;31.99;54.80;;
43938;Laerm;71382;47.750;10.226;2023-08-01T06:43:55;43.19;33.99;57.73;;
43938;Laerm;71382;47.750;10.226;2023-08-01T06:46:21;44.99;33.68;63.29;;
43938;Laerm;71382;47.750;10.226;2023-08-01T06:48:46;44.02;32.72;67.41;;
43938;Laerm;71382;47.750;10.226;2023-08-01T06:51:12;39.35;32.43;55.55;;
43938;Laerm;71382;47.750;10.226;2023-08-01T06:53:37;41.09;33.49;57.11;;
43938;Laerm;71382;47.750;10.226;2023-08-01T06:56:03;42.85;31.85;60.92;;
43938;Laerm;71382;47.750;10.226;2023-08-01T06:58:28;44.48;33.88;60.95;;
43938;Laerm;71382;47.750;10.226;2023-08-01T07:00:54;41.53;34.18;52.66;;
43938;Laerm;71382;47.750;10.226;2023-08-01T07:03:19;47.10;33.68;60.40;;
43938;Laerm;71382;47.750;10.226;2023-08-01T07:05:45;46.54;34.82;66.29;;
43938;Laerm;71382;47.750;10.226;2023-08-01T07:08:11;39.88;33.07;53.90;;
43938;Laerm;71382;47.750;10.226;2023-08-01T07:10:36;43.13;32.77;60.49;;
43938;Laerm;71382;47.750;10.226;2023-08-01T07:13:03;44.13;33.69;63.14;;
43938;Laerm;71382;47.750;10.226;2023-08-01T07:15:34;44.43;33.94;56.51;;
43938;Laerm;71382;47.750;10.226;2023-08-01T07:18:00;39.90;33.68;52.30;;
43938;Laerm;71382;47.750;10.226;2023-08-01T07:20:25;42.08;33.57;53.14;;
43938;Laerm;71382;47.750;10.226;2023-08-01T07:22:51;43.98;33.43;56.72;;
43938;Laerm;71382;47.750;10.226;2023-08-01T07:25:17;46.28;32.69;64.69;;
43938;Laerm;71382;47.750;10.226;2023-08-01T07:27:44;42.66;33.32;56.40;;
43938;Laerm;71382;47.750;10.226;2023-08-01T07:30:10;43.10;34.09;59.70;;
43938;Laerm;71382;47.750;10.226;2023-08-01T07:32:36;43.02;33.98;56.72;;
43938;Laerm;71382;47.750;10.226;2023-08-01T07:35:06;45.94;33.06;64.75;;
43938;Laerm;71382;47.750;10.226;2023-08-01T07:37:34;46.60;34.63;58.39;;
43938;Laerm;71382;47.750;10.226;2023-08-01T07:40:02;45.36;33.68;62.51;;
43938;Laerm;71382;47.750;10.226;2023-08-01T07:42:28;45.49;33.97;66.28;;
43938;Laerm;71382;47.750;10.226;2023-08-01T07:44:53;45.48;34.96;56.70;;
43938;Laerm;71382;47.750;10.226;2023-08-01T07:47:19;47.06;35.02;70.28;;
43938;Laerm;71382;47.750;10.226;2023-08-01T07:49:45;45.70;36.15;63.83;;
43938;Laerm;71382;47.750;10.226;2023-08-01T07:52:10;45.24;35.06;65.58;;
43938;Laerm;71382;47.750;10.226;2023-08-01T07:54:36;47.27;35.78;64.07;;
43938;Laerm;71382;47.750;10.226;2023-08-01T07:57:01;45.11;36.32;64.27;;
43938;Laerm;71382;47.750;10.226;2023-08-01T07:59:27;44.76;36.42;57.63;;
43938;Laerm;71382;47.750;10.226;2023-08-01T08:01:52;47.72;37.12;61.40;;
43938;Laerm;71382;47.750;10.226;2023-08-01T08:04:18;46.98;36.72;66.99;;
43938;Laerm;71382;47.750;10.226;2023-08-01T08:06:44;44.74;35.11;59.19;;
43938;Laerm;71382;47.750;10.226;2023-08-01T08:09:09;42.36;35.26;57.33;;
43938;Laerm;71382;47.750;10.226;2023-08-01T08:11:35;48.29;34.57;62.69;;
43938;Laerm;71382;47.750;10.226;2023-08-01T08:14:00;44.77;33.91;61.93;;
43938;Laerm;71382;47.750;10.226;2023-08-01T08:16:26;45.86;33.81;60.27;;
43938;Laerm;71382;47.750;10.226;2023-08-01T08:18:51;42.31;32.54;56.14;;
43938;Laerm;71382;47.750;10.226;2023-08-01T08:21:17;43.10;33.56;56.88;;
43938;Laerm;71382;47.750;10.226;2023-08-01T08:23:43;41.04;33.35;49.56;;
43938;Laerm;71382;47.750;10.226;2023-08-01T08:26:08;43.16;33.58;62.23;;
43938;Laerm;71382;47.750;10.226;2023-08-01T08:28:34;46.48;33.24;64.82;;
43938;Laerm;71382;47.750;10.226;2023-08-01T08:31:00;47.56;33.76;67.10;;
43938;Laerm;71382;47.750;10.226;2023-08-01T08:33:27;43.19;33.48;54.04;;
43938;Laerm;71382;47.750;10.226;2023-08-01T08:35:52;43.84;33.27;65.99;;
43938;Laerm;71382;47.750;10.226;2023-08-01T08:38:18;41.61;32.72;59.77;;
43938;Laerm;71382;47.750;10.226;2023-08-01T08:41:47;42.67;33.39;62.48;;
43938;Laerm;71382;47.750;10.226;2023-08-01T08:43:41;44.53;33.98;57.71;;
43938;Laerm;71382;47.750;10.226;2023-08-01T08:46:08;47.03;33.96;59.68;;
43938;Laerm;71382;47.750;10.226;2023-08-01T08:48:34;44.86;34.02;58.60;;
43938;Laerm;71382;47.750;10.226;2023-08-01T08:51:01;41.64;33.35;52.38;;
43938;Laerm;71382;47.750;10.226;2023-08-01T08:53:27;41.39;33.98;51.51;;
43938;Laerm;71382;47.750;10.226;2023-08-01T08:55:53;42.67;34.47;55.40;;
43938;Laerm;71382;47.750;10.226;2023-08-01T08:58:19;43.68;34.21;64.56;;
43938;Laerm;71382;47.750;10.226;2023-08-01T09:00:45;46.19;34.75;63.37;;
43938;Laerm;71382;47.750;10.226;2023-08-01T09:03:11;45.93;35.24;64.70;;
43938;Laerm;71382;47.750;10.226;2023-08-01T09:05:40;44.63;35.35;64.63;;
43938;Laerm;71382;47.750;10.226;2023-08-01T09:08:19;43.44;36.24;56.76;;
43938;Laerm;71382;47.750;10.226;2023-08-01T09:10:45;44.91;34.48;62.17;;
43938;Laerm;71382;47.750;10.226;2023-08-01T09:13:11;48.66;35.40;67.30;;
43938;Laerm;71382;47.750;10.226;2023-08-01T09:15:37;57.46;36.90;78.05;;
43938;Laerm;71382;47.750;10.226;2023-08-01T09:18:05;55.93;36.08;77.09;;
43938;Laerm;71382;47.750;10.226;2023-08-01T09:20:39;49.28;37.80;64.64;;
43938;Laerm;71382;47.750;10.226;2023-08-01T09:23:07;43.67;34.22;62.25;;
43938;Laerm;71382;47.750;10.226;2023-08-01T09:25:34;56.62;34.44;81.62;;
43938;Laerm;71382;47.750;10.226;2023-08-01T09:28:00;51.98;36.31;74.46;;
43938;Laerm;71382;47.750;10.226;2023-08-01T09:30:26;47.75;35.52;67.25;;
43938;Laerm;71382;47.750;10.226;2023-08-01T09:32:53;50.48;37.35;65.32;;
43938;Laerm;71382;47.750;10.226;2023-08-01T09:35:19;51.48;35.22;71.70;;
43938;Laerm;71382;47.750;10.226;2023-08-01T09:37:46;54.68;36.28;77.02;;
43938;Laerm;71382;47.750;10.226;2023-08-01T09:40:13;43.65;36.19;57.03;;
43938;Laerm;71382;47.750;10.226;2023-08-01T09:42:39;45.67;35.82;67.03;;
43938;Laerm;71382;47.750;10.226;2023-08-01T09:45:14;46.59;37.49;56.62;;
43938;Laerm;71382;47.750;10.226;2023-08-01T09:47:41;46.05;38.37;66.05;;
43938;Laerm;71382;47.750;10.226;2023-08-01T09:50:06;44.06;34.20;59.83;;
43938;Laerm;71382;47.750;10.226;2023-08-01T09:52:32;53.18;33.95;72.37;;
43938;Laerm;71382;47.750;10.226;2023-08-01T09:54:58;46.64;35.95;59.80;;
43938;Laerm;71382;47.750;10.226;2023-08-01T09:57:24;46.20;34.57;68.92;;
43938;Laerm;71382;47.750;10.226;2023-08-01T09:59:54;47.87;36.12;63.56;;
43938;Laerm;71382;47.750;10.226;2023-08-01T10:02:21;45.45;35.02;61.75;;
43938;Laerm;71382;47.750;10.226;2023-08-01T10:04:49;45.43;35.64;58.12;;
43938;Laerm;71382;47.750;10.226;2023-08-01T10:07:15;44.05;37.09;50.89;;
43938;Laerm;71382;47.750;10.226;2023-08-01T10:09:45;42.73;35.05;52.37;;
43938;Laerm;71382;47.750;10.226;2023-08-01T10:12:12;42.40;38.25;50.95;;
43938;Laerm;71382;47.750;10.226;2023-08-01T10:14:38;47.37;39.34;59.70;;
43938;Laerm;71382;47.750;10.226;2023-08-01T10:17:04;47.44;37.29;55.92;;
43938;Laerm;71382;47.750;10.226;2023-08-01T10:19:31;49.22;35.12;76.33;;
43938;Laerm;71382;47.750;10.226;2023-08-01T10:21:58;51.52;35.41;76.18;;
43938;Laerm;71382;47.750;10.226;2023-08-01T10:24:25;50.72;38.18;66.04;;
43938;Laerm;71382;47.750;10.226;2023-08-01T10:26:51;51.35;36.89;73.51;;
43938;Laerm;71382;47.750;10.226;2023-08-01T10:29:17;51.29;36.65;72.48;;
43938;Laerm;71382;47.750;10.226;2023-08-01T10:31:52;55.28;40.78;74.81;;
43938;Laerm;71382;47.750;10.226;2023-08-01T10:34:18;54.78;42.52;74.76;;
43938;Laerm;71382;47.750;10.226;2023-08-01T10:36:52;50.18;40.12;68.32;;
43938;Laerm;71382;47.750;10.226;2023-08-01T10:39:20;49.20;39.21;68.36;;
43938;Laerm;71382;47.750;10.226;2023-08-01T10:41:46;46.78;36.50;68.68;;
43938;Laerm;71382;47.750;10.226;2023-08-01T10:44:21;42.97;34.44;62.44;;
43938;Laerm;71382;47.750;10.226;2023-08-01T10:47:00;54.31;36.79;76.55;;
43938;Laerm;71382;47.750;10.226;2023-08-01T10:49:32;51.63;37.75;71.42;;
43938;Laerm;71382;47.750;10.226;2023-08-01T10:51:58;52.06;38.36;73.18;;
43938;Laerm;71382;47.750;10.226;2023-08-01T10:54:24;58.53;38.98;79.98;;
43938;Laerm;71382;47.750;10.226;2023-08-01T10:56:55;60.10;42.56;79.71;;
43938;Laerm;71382;47.750;10.226;2023-08-01T10:59:21;54.60;39.55;75.29;;
43938;Laerm;71382;47.750;10.226;2023-08-01T11:01:51;56.58;42.50;76.15;;
43938;Laerm;71382;47.750;10.226;2023-08-01T11:04:17;55.29;41.12;75.27;;
43938;Laerm;71382;47.750;10.226;2023-08-01T11:06:47;60.97;40.93;85.94;;
43938;Laerm;71382;47.750;10.226;2023-08-01T11:09:23;55.72;39.59;73.78;;
43938;Laerm;71382;47.750;10.226;2023-08-01T11:11:53;51.67;39.41;69.91;;
43938;Laerm;71382;47.750;10.226;2023-08-01T11:14:19;54.03;37.95;76.79;;
43938;Laerm;71382;47.750;10.226;2023-08-01T11:16:46;58.35;39.32;79.51;;
43938;Laerm;71382;47.750;10.226;2023-08-01T11:19:45;55.72;39.20;75.65;;
43938;Laerm;71382;47.750;10.226;2023-08-01T11:22:08;51.27;38.72;73.40;;
43938;Laerm;71382;47.750;10.226;2023-08-01T11:24:34;51.74;38.82;67.81;;
43938;Laerm;71382;47.750;10.226;2023-08-01T11:26:59;54.31;38.59;73.86;;
43938;Laerm;71382;47.750;10.226;2023-08-01T11:29:25;57.05;38.07;73.96;;
43938;Laerm;71382;47.750;10.226;2023-08-01T11:31:55;53.87;38.39;76.45;;
43938;Laerm;71382;47.750;10.226;2023-08-01T11:34:21;55.64;38.04;79.66;;
43938;Laerm;71382;47.750;10.226;2023-08-01T11:36:47;54.74;37.66;74.94;;
43938;Laerm;71382;47.750;10.226;2023-08-01T11:39:13;63.14;38.79;81.34;;
43938;Laerm;71382;47.750;10.226;2023-08-01T11:41:39;57.31;40.05;77.07;;
43938;Laerm;71382;47.750;10.226;2023-08-01T11:44:05;56.69;38.59;78.56;;
43938;Laerm;71382;47.750;10.226;2023-08-01T11:46:32;54.53;39.00;75.83;;
43938;Laerm;71382;47.750;10.226;2023-08-01T11:48:58;60.49;38.28;82.70;;
43938;Laerm;71382;47.750;10.226;2023-08-01T11:51:25;61.18;35.84;80.10;;
43938;Laerm;71382;47.750;10.226;2023-08-01T11:54:01;50.79;35.10;72.13;;
43938;Laerm;71382;47.750;10.226;2023-08-01T11:56:27;53.98;35.29;74.93;;
43938;Laerm;71382;47.750;10.226;2023-08-01T11:58:52;48.07;37.17;69.46;;
43938;Laerm;71382;47.750;10.226;2023-08-01T12:01:18;54.43;35.50;76.48;;
43938;Laerm;71382;47.750;10.226;2023-08-01T12:03:50;49.80;35.94;70.41;;
43938;Laerm;71382;47.750;10.226;2023-08-01T12:06:17;48.62;34.72;69.79;;
43938;Laerm;71382;47.750;10.226;2023-08-01T12:08:43;51.47;36.21;70.80;;
43938;Laerm;71382;47.750;10.226;2023-08-01T12:16:28;57.56;38.55;82.53;;
43938;Laerm;71382;47.750;10.226;2023-08-01T12:18:53;56.37;37.52;78.34;;
43938;Laerm;71382;47.750;10.226;2023-08-01T12:21:19;59.96;38.43;81.72;;
43938;Laerm;71382;47.750;10.226;2023-08-01T12:23:45;59.15;38.49;82.52;;
43938;Laerm;71382;47.750;10.226;2023-08-01T12:26:10;55.60;37.92;76.29;;
43938;Laerm;71382;47.750;10.226;2023-08-01T12:28:36;58.85;38.97;78.79;;
43938;Laerm;71382;47.750;10.226;2023-08-01T12:31:02;58.01;40.92;81.86;;
43938;Laerm;71382;47.750;10.226;2023-08-01T12:33:28;59.35;38.58;78.75;;
43938;Laerm;71382;47.750;10.226;2023-08-01T12:35:54;57.62;39.93;79.95;;
43938;Laerm;71382;47.750;10.226;2023-08-01T12:38:23;56.96;38.48;79.34;;
43938;Laerm;71382;47.750;10.226;2023-08-01T12:40:54;55.65;38.40;76.65;;
43938;Laerm;71382;47.750;10.226;2023-08-01T12:43:20;54.05;37.23;76.09;;
43938;Laerm;71382;47.750;10.226;2023-08-01T12:45:46;60.02;38.74;82.18;;
43938;Laerm;71382;47.750;10.226;2023-08-01T12:48:13;57.76;37.92;80.26;;
43938;Laerm;71382;47.750;10.226;2023-08-01T12:50:42;54.01;38.10;71.70;;
43938;Laerm;71382;47.750;10.226;2023-08-01T12:53:08;56.28;39.78;79.16;;
43938;Laerm;71382;47.750;10.226;2023-08-01T12:55:33;55.21;38.92;75.55;;
43938;Laerm;71382;47.750;10.226;2023-08-01T12:57:59;58.25;40.47;78.99;;
43938;Laerm;71382;47.750;10.226;2023-08-01T13:00:25;56.66;39.57;80.44;;
43938;Laerm;71382;47.750;10.226;2023-08-01T13:02:50;59.22;40.89;79.05;;
43938;Laerm;71382;47.750;10.226;2023-08-01T13:05:16;56.32;41.77;78.39;;
43938;Laerm;71382;47.750;10.226;2023-08-01T13:07:42;53.36;41.81;73.04;;
43938;Laerm;71382;47.750;10.226;2023-08-01T13:10:08;62.10;42.20;81.11;;
43938;Laerm;71382;47.750;10.226;2023-08-01T13:12:33;66.70;43.17;90.78;;
43938;Laerm;71382;47.750;10.226;2023-08-01T13:14:59;62.08;42.30;79.65;;
43938;Laerm;71382;47.750;10.226;2023-08-01T13:17:24;58.41;40.32;76.34;;
43938;Laerm;71382;47.750;10.226;2023-08-01T13:19:50;61.80;42.71;82.18;;
43938;Laerm;71382;47.750;10.226;2023-08-01T13:22:16;55.13;41.99;73.31;;
43938;Laerm;71382;47.750;10.226;2023-08-01T13:24:42;55.68;40.48;79.76;;
43938;Laerm;71382;47.750;10.226;2023-08-01T13:27:07;55.03;39.45;73.20;;
43938;Laerm;71382;47.750;10.226;2023-08-01T13:29:35;59.42;39.79;83.28;;
43938;Laerm;71382;47.750;10.226;2023-08-01T13:32:00;56.79;42.14;75.18;;